Date,TemperatureHighF,TemperatureAvgF,TemperatureLowF,DewpointHighF,DewpointAvgF,DewpointLowF,HumidityHigh,HumidityAvg,HumidityLow,PressureMaxIn,PressureMinIn,WindSpeedMaxMPH,WindSpeedAvgMPH,GustSpeedMaxMPH,PrecipitationSumIn
2013-2-1,26.5,21.2,18.9,14.9,12.6,9.6,77,69,59,30.17,29.71,20,8,20,5.85
2013-2-2,24.1,18.8,14.9,15.4,12.0,8.2,82,75,68,30.17,29.94,18,5,18,5.85
2013-2-3,32.4,19.0,8.3,22.1,11.8,2.9,81,74,58,29.95,29.77,12,1,12,6.18
2013-2-4,22.5,18.3,15.5,12.5,10.4,8.0,75,71,61,29.95,29.85,16,7,16,3.30
2013-2-10,45.5,40.6,36.7,32.1,27.1,25.0,70,59,52,30.11,29.90,12,4,12,1.38
2013-2-11,53.1,40.2,32.9,42.9,32.0,24.8,87,73,54,29.90,29.56,40,13,40,3.71
2013-2-12,35.6,33.0,31.9,30.0,27.7,25.5,90,81,73,29.97,29.75,30,12,30,0.01
2013-2-13,45.7,34.2,25.7,31.2,25.8,19.8,79,72,55,29.90,29.72,6,2,10,0.00
2013-2-14,44.1,36.9,25.4,34.5,29.8,19.8,85,76,62,29.88,29.77,24,5,24,0.10
2013-2-15,39.1,33.0,23.0,33.6,24.7,14.6,81,71,64,30.06,29.77,31,11,31,0.00
2013-2-16,34.2,26.1,19.4,20.4,16.7,10.5,77,68,56,30.06,29.89,12,2,12,0.00
2013-2-17,21.6,17.6,13.9,16.3,10.0,5.2,82,72,62,30.20,29.88,19,4,19,0.00
2013-2-18,40.7,24.9,8.8,25.0,14.1,3.0,78,65,49,30.25,29.85,10,2,10,0.02
2013-2-19,43.2,34.7,24.1,37.3,26.8,18.7,85,73,57,29.85,29.55,32,10,32,4.75
2013-2-20,25.6,22.3,19.8,19.6,14.0,10.8,82,70,59,30.09,29.77,27,12,27,6.82
2013-2-21,26.3,21.4,17.6,16.1,13.7,11.0,77,72,64,30.39,30.06,23,6,23,6.83
2013-2-22,38.7,30.7,21.4,30.8,23.6,15.5,80,75,63,30.36,29.97,12,4,12,7.00
2013-2-23,42.1,34.7,31.7,33.9,28.4,25.2,80,77,71,29.97,29.86,16,5,16,7.32
2013-2-24,33.7,31.6,30.2,26.8,25.3,24.3,81,77,74,30.08,29.85,20,7,20,7.31
2013-2-25,42.1,33.0,24.1,32.0,26.0,18.9,81,75,64,30.22,30.08,12,3,12,7.31
2013-2-26,47.2,34.8,23.6,33.1,27.0,18.8,87,74,54,30.20,29.69,19,5,19,8.71
2013-2-27,41.2,37.0,34.7,36.7,32.9,31.2,89,85,80,29.69,29.57,20,4,20,7.55
2013-2-28,37.4,34.8,32.8,33.6,31.5,30.0,90,88,85,29.75,29.54,15,5,15,8.38